createdAt,value
2019-05-06T00:00:59.304Z,71.97
2019-05-06T00:01:55.890Z,71.97
2019-05-06T00:02:55.880Z,71.97
2019-05-06T00:03:55.851Z,71.73
2019-05-06T00:04:55.861Z,71.86
2019-05-06T00:05:55.829Z,71.94
2019-05-06T00:06:55.818Z,72.17
2019-05-06T00:07:55.823Z,72.35
2019-05-06T00:08:55.798Z,72.04
2019-05-06T00:09:55.791Z,71.80
2019-05-06T00:10:55.780Z,71.94
2019-05-06T00:11:55.763Z,71.62
2019-05-06T00:12:55.759Z,71.49
2019-05-06T00:13:55.755Z,71.91
2019-05-06T00:14:55.774Z,71.94
2019-05-06T00:15:55.735Z,72.22
2019-05-06T00:16:58.493Z,71.83
2019-05-06T00:17:55.713Z,71.94
2019-05-06T00:18:55.712Z,71.66
2019-05-06T00:19:57.057Z,72.04
2019-05-06T00:20:57.589Z,71.31
2019-05-06T00:21:55.657Z,71.97
2019-05-06T00:22:55.653Z,71.94
2019-05-06T00:23:55.638Z,71.73
2019-05-06T00:24:55.660Z,71.73
2019-05-06T00:25:55.636Z,71.73
2019-05-06T00:26:57.603Z,71.73
2019-05-06T00:27:55.625Z,72.14
2019-05-06T00:28:55.580Z,72.07
2019-05-06T00:29:55.570Z,72.25
2019-05-06T00:31:08.592Z,72.28
2019-05-06T00:31:56.568Z,72.38
2019-05-06T00:32:55.543Z,72.59
2019-05-06T00:33:55.535Z,72.66
2019-05-06T00:34:55.513Z,72.59
2019-05-06T00:35:55.503Z,72.69
2019-05-06T00:36:55.539Z,72.80
2019-05-06T00:37:55.482Z,73.53
2019-05-06T00:38:55.472Z,73.35
2019-05-06T00:39:55.466Z,73.14
2019-05-06T00:40:55.465Z,73.56
2019-05-06T00:41:55.463Z,73.66
2019-05-06T00:42:55.460Z,73.77
2019-05-06T00:43:55.423Z,74.18
2019-05-06T00:44:55.410Z,74.53
2019-05-06T00:45:55.394Z,74.84
2019-05-06T00:46:55.388Z,74.84
2019-05-06T00:47:55.383Z,74.84
2019-05-06T00:48:55.376Z,75.26
2019-05-06T00:49:55.357Z,75.46
2019-05-06T00:50:55.343Z,75.36
2019-05-06T00:51:55.341Z,75.67
2019-05-06T00:52:55.326Z,75.88
2019-05-06T00:53:55.307Z,75.78
2019-05-06T00:54:55.295Z,75.57
2019-05-06T00:55:55.286Z,75.60
2019-05-06T00:56:55.279Z,75.92
2019-05-06T00:57:55.295Z,76.23
2019-05-06T00:58:55.257Z,76.23
2019-05-06T00:59:55.252Z,76.54
2019-05-06T01:00:55.236Z,76.43
2019-05-06T01:01:55.228Z,77.06
2019-05-06T01:02:55.216Z,77.20
2019-05-06T01:03:55.221Z,76.95
2019-05-06T01:04:55.209Z,77.40
2019-05-06T01:05:55.194Z,77.16
2019-05-06T01:06:55.167Z,78.00
2019-05-06T01:07:55.171Z,77.48
2019-05-06T01:08:55.152Z,77.79
2019-05-06T01:09:55.153Z,77.79
2019-05-06T01:10:55.128Z,78.00
2019-05-06T01:11:55.112Z,77.61
2019-05-06T01:12:55.108Z,77.93
2019-05-06T01:13:55.091Z,77.83
2019-05-06T01:14:55.095Z,77.69
2019-05-06T01:15:55.070Z,78.10
2019-05-06T01:16:55.061Z,77.69
2019-05-06T01:17:55.049Z,77.89
2019-05-06T01:18:55.040Z,77.69
2019-05-06T01:19:55.101Z,77.89
2019-05-06T01:20:55.036Z,78.20
2019-05-06T01:21:55.009Z,78.06
2019-05-06T01:22:55.001Z,78.06
2019-05-06T01:23:54.986Z,77.96
2019-05-06T01:24:55.823Z,77.86
2019-05-06T01:25:54.976Z,77.75
2019-05-06T01:26:54.956Z,77.96
2019-05-06T01:27:54.943Z,78.17
2019-05-06T01:28:54.930Z,77.92
2019-05-06T01:29:55.021Z,78.23
2019-05-06T01:30:54.924Z,77.92
2019-05-06T01:31:54.896Z,78.03
2019-05-06T01:32:54.904Z,77.72
2019-05-06T01:33:54.873Z,77.72
2019-05-06T01:34:54.863Z,77.82
2019-05-06T01:35:54.861Z,77.20
2019-05-06T01:36:54.846Z,77.16
2019-05-06T01:37:54.834Z,77.16
2019-05-06T01:38:54.819Z,77.06
2019-05-06T01:39:54.824Z,77.26
2019-05-06T01:40:54.825Z,77.06
2019-05-06T01:41:54.792Z,77.20
2019-05-06T01:42:54.781Z,76.95
2019-05-06T01:43:54.771Z,77.16
2019-05-06T01:44:54.756Z,77.47
2019-05-06T01:45:54.747Z,77.54
2019-05-06T01:46:54.748Z,77.33
2019-05-06T01:47:54.727Z,77.33
2019-05-06T01:48:54.718Z,77.12
2019-05-06T01:49:54.706Z,77.20
2019-05-06T01:50:54.695Z,76.68
2019-05-06T01:51:54.876Z,76.26
2019-05-06T01:52:54.667Z,76.37
2019-05-06T01:53:54.710Z,76.26
2019-05-06T01:54:54.652Z,75.92
2019-05-06T01:55:54.670Z,76.02
2019-05-06T01:56:54.632Z,76.12
2019-05-06T01:57:54.712Z,75.67
2019-05-06T01:58:54.641Z,75.26
2019-05-06T01:59:54.591Z,75.36
2019-05-06T02:00:54.581Z,75.32
2019-05-06T02:02:00.600Z,74.81
2019-05-06T02:02:55.557Z,74.08
2019-05-06T02:03:54.555Z,73.43
2019-05-06T02:04:54.549Z,73.01
2019-05-06T02:05:54.527Z,71.63
2019-05-06T02:06:54.816Z,71.63
2019-05-06T02:07:55.099Z,72.02
2019-05-06T02:08:54.504Z,70.77
2019-05-06T02:09:54.500Z,70.98
2019-05-06T02:10:54.704Z,69.92
2019-05-06T02:11:54.471Z,69.81
2019-05-06T02:12:54.490Z,69.78
2019-05-06T02:13:54.438Z,69.57
2019-05-06T02:14:54.472Z,68.64
2019-05-06T02:15:54.822Z,67.61
2019-05-06T02:16:54.785Z,67.82
2019-05-06T02:17:55.126Z,68.02
2019-05-06T02:18:54.405Z,67.71
2019-05-06T02:19:54.772Z,66.64
2019-05-06T02:20:54.370Z,66.64
2019-05-06T02:21:54.435Z,66.23
2019-05-06T02:22:54.343Z,65.89
2019-05-06T02:23:54.335Z,66.23
2019-05-06T02:24:54.321Z,66.61
2019-05-06T02:25:54.342Z,66.23
2019-05-06T02:26:54.454Z,66.85
2019-05-06T02:27:54.311Z,66.33
2019-05-06T02:28:54.597Z,66.75
2019-05-06T02:29:54.424Z,66.85
2019-05-06T02:30:54.943Z,67.30
2019-05-06T02:32:00.778Z,67.37
2019-05-06T02:32:55.864Z,67.50
2019-05-06T02:33:55.852Z,67.40
2019-05-06T02:34:54.806Z,67.91
2019-05-06T02:35:55.024Z,67.91
2019-05-06T02:36:55.136Z,67.74
2019-05-06T02:37:55.106Z,68.15
2019-05-06T02:38:55.619Z,67.91
2019-05-06T02:39:54.188Z,67.85
2019-05-06T02:40:54.148Z,68.46
2019-05-06T02:41:54.826Z,67.85
2019-05-06T02:42:55.076Z,68.15
2019-05-06T02:43:54.442Z,68.46
2019-05-06T02:44:54.518Z,68.05
2019-05-06T02:45:54.133Z,68.60
2019-05-06T02:46:54.084Z,68.67
2019-05-06T02:47:54.073Z,69.43
2019-05-06T02:48:54.479Z,69.32
2019-05-06T02:49:54.048Z,69.43
2019-05-06T02:50:54.062Z,69.01
2019-05-06T02:51:54.036Z,68.91
2019-05-06T02:52:54.036Z,69.25
2019-05-06T02:53:54.183Z,69.87
2019-05-06T02:54:54.015Z,70.01
2019-05-06T02:55:53.991Z,70.21
2019-05-06T02:56:53.976Z,70.32
2019-05-06T02:57:54.034Z,70.53
2019-05-06T02:58:53.991Z,70.94
2019-05-06T02:59:55.370Z,70.97
2019-05-06T03:00:54.168Z,70.76
2019-05-06T03:01:54.190Z,70.87
2019-05-06T03:02:54.394Z,70.76
2019-05-06T03:03:53.899Z,70.46
2019-05-06T03:04:53.887Z,71.22
2019-05-06T03:05:53.882Z,71.53
2019-05-06T03:06:53.869Z,71.63
2019-05-06T03:07:56.933Z,71.73
2019-05-06T03:08:54.464Z,71.66
2019-05-06T03:09:53.876Z,72.39
2019-05-06T03:10:53.914Z,72.18
2019-05-06T03:11:54.225Z,72.18
2019-05-06T03:12:54.080Z,72.49
2019-05-06T03:13:54.059Z,73.22
2019-05-06T03:14:53.795Z,73.15
2019-05-06T03:15:54.441Z,73.46
2019-05-06T03:16:54.271Z,73.46
2019-05-06T03:17:55.333Z,73.46
2019-05-06T03:18:53.743Z,73.46
2019-05-06T03:19:53.737Z,73.53
2019-05-06T03:20:53.733Z,73.77
2019-05-06T03:21:54.698Z,74.29
2019-05-06T03:22:54.506Z,74.19
2019-05-06T03:23:54.402Z,74.29
2019-05-06T03:24:54.589Z,74.01
2019-05-06T03:25:53.675Z,74.50
2019-05-06T03:26:56.994Z,74.50
2019-05-06T03:27:53.640Z,74.63
2019-05-06T03:28:53.798Z,74.63
2019-05-06T03:29:53.902Z,75.05
2019-05-06T03:30:56.524Z,75.50
2019-05-06T03:31:56.294Z,75.19
2019-05-06T03:33:28.216Z,75.60
2019-05-06T03:34:16.490Z,75.71
2019-05-06T03:35:15.730Z,75.92
2019-05-06T03:36:06.334Z,76.23
2019-05-06T03:36:56.571Z,75.95
2019-05-06T03:37:53.595Z,76.37
2019-05-06T03:38:53.927Z,76.78
2019-05-06T03:39:53.514Z,77.26
2019-05-06T03:40:53.949Z,77.26
2019-05-06T03:41:53.881Z,77.37
2019-05-06T03:42:54.066Z,77.20
2019-05-06T03:43:54.374Z,77.09
2019-05-06T03:44:53.654Z,77.40
2019-05-06T03:45:53.777Z,77.61
2019-05-06T03:46:54.174Z,77.82
2019-05-06T03:47:54.356Z,77.72
2019-05-06T03:48:53.411Z,77.72
2019-05-06T03:49:54.555Z,77.61
2019-05-06T03:50:55.965Z,78.27
2019-05-06T03:51:56.235Z,77.86
2019-05-06T03:52:56.342Z,78.69
2019-05-06T03:53:54.010Z,78.38
2019-05-06T03:54:53.898Z,78.58
2019-05-06T03:55:53.857Z,78.58
2019-05-06T03:56:53.812Z,79.21
2019-05-06T03:57:53.943Z,79.35
2019-05-06T03:58:53.880Z,79.52
2019-05-06T03:59:53.324Z,79.21
2019-05-06T04:00:53.288Z,79.87
2019-05-06T04:01:53.524Z,80.29
2019-05-06T04:02:53.711Z,80.15
2019-05-06T04:03:56.986Z,79.97
2019-05-06T04:04:56.385Z,79.97
2019-05-06T04:05:55.987Z,79.87
2019-05-06T04:06:53.946Z,79.76
2019-05-06T04:07:53.292Z,80.39
2019-05-06T04:08:53.220Z,80.60
2019-05-06T04:09:53.897Z,80.60
2019-05-06T04:10:53.724Z,81.01
2019-05-06T04:11:54.152Z,81.08
2019-05-06T04:12:53.943Z,80.91
2019-05-06T04:13:53.516Z,81.08
2019-05-06T04:14:54.011Z,80.77
2019-05-06T04:15:53.964Z,80.98
2019-05-06T04:16:53.409Z,80.98
2019-05-06T04:17:54.087Z,80.98
2019-05-06T04:18:54.089Z,80.66
2019-05-06T04:19:53.623Z,80.56
2019-05-06T04:20:53.368Z,80.98
2019-05-06T04:21:53.462Z,80.87
2019-05-06T04:22:53.352Z,80.98
2019-05-06T04:23:53.646Z,80.80
2019-05-06T04:24:53.972Z,81.49
2019-05-06T04:25:53.017Z,81.81
2019-05-06T04:26:53.479Z,81.49
2019-05-06T04:27:53.694Z,81.91
2019-05-06T04:28:53.521Z,81.70
2019-05-06T04:29:54.403Z,81.91
2019-05-06T04:30:54.795Z,81.87
2019-05-06T04:31:54.096Z,81.46
2019-05-06T04:32:53.366Z,81.35
2019-05-06T04:34:08.827Z,81.87
2019-05-06T04:34:53.912Z,81.46
2019-05-06T04:35:54.062Z,81.46
2019-05-06T04:36:53.490Z,80.80
2019-05-06T04:37:53.858Z,80.49
2019-05-06T04:38:53.931Z,80.38
2019-05-06T04:39:53.501Z,80.38
2019-05-06T04:40:53.877Z,80.38
2019-05-06T04:41:53.920Z,80.49
2019-05-06T04:42:52.974Z,80.52
2019-05-06T04:43:53.441Z,80.38
2019-05-06T04:44:53.270Z,80.18
2019-05-06T04:45:54.076Z,80.49
2019-05-06T04:46:54.395Z,80.38
2019-05-06T04:47:53.833Z,80.69
2019-05-06T04:48:53.858Z,81.21
2019-05-06T04:49:53.382Z,80.66
2019-05-06T04:50:53.571Z,80.14
2019-05-06T04:51:54.059Z,79.51
2019-05-06T04:52:53.605Z,79.58
2019-05-06T04:53:53.708Z,80.00
2019-05-06T04:54:53.395Z,79.69
2019-05-06T04:55:53.930Z,80.10
2019-05-06T04:56:53.599Z,79.85
2019-05-06T04:57:53.587Z,79.24
2019-05-06T04:58:53.787Z,79.13
2019-05-06T04:59:54.182Z,78.61
2019-05-06T05:00:53.269Z,78.16
2019-05-06T05:01:53.467Z,78.58
2019-05-06T05:02:55.027Z,78.16
2019-05-06T05:03:53.817Z,77.95
2019-05-06T05:04:53.008Z,77.71
2019-05-06T05:05:53.172Z,77.40
2019-05-06T05:06:52.565Z,77.29
2019-05-06T05:07:53.099Z,77.26
2019-05-06T05:08:53.198Z,77.71
2019-05-06T05:09:53.490Z,77.26
2019-05-06T05:10:53.094Z,77.26
2019-05-06T05:11:53.236Z,77.05
2019-05-06T05:12:52.823Z,76.95
2019-05-06T05:13:53.142Z,76.43
2019-05-06T05:14:52.481Z,76.81
2019-05-06T05:15:52.554Z,76.50
2019-05-06T05:16:52.885Z,76.61
2019-05-06T05:17:52.652Z,75.95
2019-05-06T05:18:53.073Z,75.36
2019-05-06T05:19:52.421Z,75.22
2019-05-06T05:20:52.924Z,74.40
2019-05-06T05:21:52.433Z,74.71
2019-05-06T05:22:52.864Z,74.40
2019-05-06T05:23:52.425Z,74.26
2019-05-06T05:24:52.369Z,74.67
2019-05-06T05:25:52.354Z,74.50
2019-05-06T05:26:52.352Z,74.57
2019-05-06T05:27:52.819Z,74.22
2019-05-06T05:28:53.251Z,74.43
2019-05-06T05:29:52.398Z,73.91
2019-05-06T05:30:52.320Z,73.60
2019-05-06T05:31:53.009Z,73.81
2019-05-06T05:32:52.305Z,73.81
2019-05-06T05:33:52.680Z,73.81
2019-05-06T05:34:52.405Z,73.81
2019-05-06T05:35:52.678Z,73.71
2019-05-06T05:36:52.239Z,73.50
2019-05-06T05:37:52.925Z,73.19
2019-05-06T05:38:52.383Z,73.39
2019-05-06T05:39:52.216Z,73.88
2019-05-06T05:40:52.500Z,73.36
2019-05-06T05:41:52.218Z,72.95
2019-05-06T05:42:52.281Z,72.43
2019-05-06T05:43:52.659Z,71.71
2019-05-06T05:44:52.738Z,71.67
2019-05-06T05:45:52.428Z,71.92
2019-05-06T05:46:52.526Z,71.78
2019-05-06T05:47:52.311Z,71.81
2019-05-06T05:48:52.152Z,71.88
2019-05-06T05:49:52.852Z,73.22
2019-05-06T05:50:52.608Z,72.09
2019-05-06T05:51:52.133Z,71.47
2019-05-06T05:52:52.166Z,71.54
2019-05-06T05:53:52.458Z,71.54
2019-05-06T05:54:55.401Z,71.85
2019-05-06T05:55:52.720Z,71.33
2019-05-06T05:56:52.938Z,71.12
2019-05-06T05:57:52.008Z,70.78
2019-05-06T05:58:53.483Z,70.78
2019-05-06T05:59:52.815Z,69.96
2019-05-06T06:00:52.128Z,70.68
2019-05-06T06:01:53.001Z,70.44
2019-05-06T06:02:52.998Z,69.44
2019-05-06T06:03:52.768Z,70.13
2019-05-06T06:04:57.079Z,69.93
2019-05-06T06:05:52.966Z,70.23
2019-05-06T06:06:52.111Z,70.54
2019-05-06T06:07:52.997Z,70.34
2019-05-06T06:08:52.445Z,69.00
2019-05-06T06:09:52.452Z,69.00
2019-05-06T06:10:52.467Z,68.76
2019-05-06T06:11:53.251Z,69.27
2019-05-06T06:12:52.797Z,69.17
2019-05-06T06:13:52.314Z,68.86
2019-05-06T06:14:55.236Z,68.96
2019-05-06T06:15:52.187Z,69.24
2019-05-06T06:16:52.711Z,68.73
2019-05-06T06:17:52.068Z,69.04
2019-05-06T06:18:52.474Z,67.80
2019-05-06T06:19:53.384Z,67.39
2019-05-06T06:20:52.808Z,67.05
2019-05-06T06:21:52.377Z,66.56
2019-05-06T06:22:52.290Z,66.46
2019-05-06T06:23:52.891Z,66.36
2019-05-06T06:24:52.588Z,66.67
2019-05-06T06:25:52.892Z,67.66
2019-05-06T06:26:52.159Z,66.74
2019-05-06T06:27:52.234Z,66.12
2019-05-06T06:28:52.267Z,66.64
2019-05-06T06:29:52.719Z,66.71
2019-05-06T06:30:52.084Z,66.61
2019-05-06T06:31:52.392Z,65.06
2019-05-06T06:32:52.813Z,64.86
2019-05-06T06:33:52.976Z,65.71
2019-05-06T06:34:53.384Z,64.75
2019-05-06T06:35:52.599Z,64.65
2019-05-06T06:36:52.617Z,63.72
2019-05-06T06:37:52.362Z,63.52
2019-05-06T06:38:52.737Z,64.44
2019-05-06T06:39:52.673Z,64.03
2019-05-06T06:40:55.480Z,64.65
2019-05-06T06:41:51.986Z,63.79
2019-05-06T06:42:52.443Z,63.79
2019-05-06T06:43:52.474Z,64.11
2019-05-06T06:44:52.085Z,64.62
2019-05-06T06:45:53.118Z,63.28
2019-05-06T06:46:52.434Z,63.05
2019-05-06T06:47:51.900Z,62.02
2019-05-06T06:48:52.712Z,61.61
2019-05-06T06:49:53.492Z,61.30
2019-05-06T06:50:52.271Z,61.19
2019-05-06T06:51:53.216Z,60.86
2019-05-06T06:52:52.552Z,60.58
2019-05-06T06:53:52.961Z,61.58
2019-05-06T06:54:52.665Z,61.07
2019-05-06T06:55:52.286Z,60.75
2019-05-06T06:57:03.229Z,60.75
2019-05-06T06:57:52.346Z,60.03
2019-05-06T06:58:52.492Z,60.14
2019-05-06T06:59:52.399Z,59.08
2019-05-06T07:00:53.303Z,59.80
2019-05-06T07:01:52.960Z,59.67
2019-05-06T07:02:52.489Z,59.77
2019-05-06T07:03:52.799Z,60.39
2019-05-06T07:04:52.571Z,59.67
2019-05-06T07:05:52.763Z,60.88
2019-05-06T07:06:53.124Z,59.54
2019-05-06T07:07:53.104Z,59.64
2019-05-06T07:08:51.769Z,59.75
2019-05-06T07:09:52.606Z,60.05
2019-05-06T07:10:52.527Z,60.16
2019-05-06T07:11:52.594Z,59.06
2019-05-06T07:12:53.191Z,59.47
2019-05-06T07:13:52.925Z,58.34
2019-05-06T07:14:52.331Z,59.77
2019-05-06T07:15:51.996Z,59.85
2019-05-06T07:16:53.196Z,60.36
2019-05-06T07:17:52.475Z,58.90
2019-05-06T07:18:52.631Z,59.31
2019-05-06T07:19:52.748Z,59.28
2019-05-06T07:20:52.553Z,57.64
2019-05-06T07:21:52.263Z,58.49
2019-05-06T07:22:52.954Z,59.11
2019-05-06T07:23:52.999Z,58.69
2019-05-06T07:24:52.729Z,58.49
2019-05-06T07:25:53.529Z,59.00
2019-05-06T07:26:52.460Z,58.59
2019-05-06T07:27:52.962Z,57.87
2019-05-06T07:28:52.639Z,58.07
2019-05-06T07:29:52.221Z,56.95
2019-05-06T07:30:52.230Z,58.90
2019-05-06T07:31:53.256Z,57.87
2019-05-06T07:32:52.784Z,58.05
2019-05-06T07:33:52.228Z,56.92
2019-05-06T07:34:52.995Z,56.20
2019-05-06T07:35:52.943Z,55.77
2019-05-06T07:36:52.447Z,55.56
2019-05-06T07:37:52.918Z,55.87
2019-05-06T07:38:52.716Z,55.85
2019-05-06T07:39:52.890Z,54.10
2019-05-06T07:40:52.897Z,54.82
2019-05-06T07:41:53.282Z,54.69
2019-05-06T07:42:52.654Z,55.00
2019-05-06T07:43:52.555Z,53.08
2019-05-06T07:44:52.933Z,53.08
2019-05-06T07:45:53.088Z,53.31
2019-05-06T07:46:52.484Z,55.15
2019-05-06T07:47:53.003Z,54.95
2019-05-06T07:48:51.894Z,52.80
2019-05-06T07:49:53.024Z,54.64
2019-05-06T07:50:52.029Z,53.72
2019-05-06T07:51:52.887Z,54.74
2019-05-06T07:52:52.764Z,55.08
2019-05-06T07:53:52.428Z,53.72
2019-05-06T07:54:53.163Z,53.51
2019-05-06T07:55:52.496Z,51.34
2019-05-06T07:56:52.705Z,51.15
2019-05-06T07:57:52.525Z,53.00
2019-05-06T07:58:52.892Z,53.20
2019-05-06T07:59:52.498Z,54.61
2019-05-06T08:00:52.470Z,52.95
2019-05-06T08:01:50.642Z,52.95
2019-05-06T08:02:52.398Z,51.08
2019-05-06T08:03:53.114Z,50.26
2019-05-06T08:04:52.968Z,50.26
2019-05-06T08:05:57.884Z,50.70
2019-05-06T08:06:52.326Z,50.18
2019-05-06T08:07:50.595Z,50.39
2019-05-06T08:08:53.739Z,50.52
2019-05-06T08:09:52.789Z,50.39
2019-05-06T08:10:52.602Z,51.62
2019-05-06T08:11:50.532Z,52.54
2019-05-06T08:12:52.533Z,52.72
2019-05-06T08:13:52.623Z,52.62
2019-05-06T08:14:52.372Z,52.80
2019-05-06T08:15:52.698Z,52.08
2019-05-06T08:16:50.467Z,50.75
2019-05-06T08:17:52.442Z,50.04
2019-05-06T08:18:52.388Z,50.83
2019-05-06T08:19:52.731Z,50.24
2019-05-06T08:20:51.957Z,50.47
2019-05-06T08:21:52.123Z,52.21
2019-05-06T08:22:52.588Z,51.29
2019-05-06T08:23:52.304Z,51.34
2019-05-06T08:24:50.386Z,50.68
2019-05-06T08:25:52.679Z,50.02
2019-05-06T08:26:52.162Z,47.91
2019-05-06T08:27:50.366Z,45.32
2019-05-06T08:28:52.393Z,46.15
2019-05-06T08:29:52.485Z,45.54
2019-05-06T08:30:50.315Z,45.53
2019-05-06T08:31:52.300Z,46.87
2019-05-06T08:32:50.312Z,47.30
2019-05-06T08:33:52.387Z,46.92
2019-05-06T08:34:52.274Z,47.47
2019-05-06T08:35:50.270Z,48.10
2019-05-06T08:36:50.254Z,48.86
2019-05-06T08:37:50.242Z,48.48
2019-05-06T08:38:50.232Z,49.32
2019-05-06T08:39:52.534Z,48.63
2019-05-06T08:40:52.412Z,50.26
2019-05-06T08:41:50.199Z,50.16
2019-05-06T08:42:50.189Z,50.93
2019-05-06T08:43:50.173Z,50.17
2019-05-06T08:44:50.170Z,48.92
2019-05-06T08:45:52.633Z,47.65
2019-05-06T08:46:50.142Z,47.00
2019-05-06T08:47:52.246Z,45.73
2019-05-06T08:48:52.357Z,45.32
2019-05-06T08:49:50.118Z,43.14
2019-05-06T08:50:50.107Z,45.32
2019-05-06T08:51:50.084Z,47.69
2019-05-06T08:52:52.129Z,48.76
2019-05-06T08:53:50.061Z,48.46
2019-05-06T08:54:50.055Z,49.19
2019-05-06T08:55:50.048Z,50.14
2019-05-06T08:56:52.150Z,51.16
2019-05-06T08:57:50.016Z,50.04
2019-05-06T08:58:52.582Z,50.55
2019-05-06T08:59:50.002Z,48.58
2019-05-06T09:00:50.002Z,49.13
2019-05-06T09:01:49.972Z,46.43
2019-05-06T09:02:49.963Z,45.39
2019-05-06T09:04:05.036Z,44.93
2019-05-06T09:04:51.800Z,44.59
2019-05-06T09:05:49.938Z,41.49
2019-05-06T09:06:49.924Z,41.46
2019-05-06T09:07:49.911Z,41.66
2019-05-06T09:08:52.052Z,40.52
2019-05-06T09:09:49.903Z,41.56
2019-05-06T09:10:51.978Z,41.68
2019-05-06T09:11:49.886Z,41.92
2019-05-06T09:12:49.853Z,43.37
2019-05-06T09:13:51.979Z,41.86
2019-05-06T09:14:49.841Z,43.43
2019-05-06T09:15:49.825Z,44.75
2019-05-06T09:16:51.334Z,44.98
2019-05-06T09:17:49.813Z,45.43
2019-05-06T09:18:49.788Z,44.94
2019-05-06T09:19:49.785Z,45.86
2019-05-06T09:20:49.770Z,46.59
2019-05-06T09:21:49.768Z,47.72
2019-05-06T09:22:52.080Z,47.90
2019-05-06T09:23:49.735Z,46.94
2019-05-06T09:24:49.740Z,46.83
2019-05-06T09:25:49.715Z,44.81
2019-05-06T09:26:52.022Z,43.96
2019-05-06T09:27:49.701Z,42.90
2019-05-06T09:28:49.677Z,41.90
2019-05-06T09:29:51.960Z,40.64
2019-05-06T09:30:49.654Z,40.99
2019-05-06T09:31:52.050Z,40.70
2019-05-06T09:32:49.643Z,42.06
2019-05-06T09:33:49.628Z,43.63
2019-05-06T09:34:49.623Z,43.65
2019-05-06T09:35:49.602Z,43.75
2019-05-06T09:36:52.653Z,45.20
2019-05-06T09:37:53.267Z,45.35
2019-05-06T09:38:49.610Z,44.84
2019-05-06T09:39:49.556Z,45.84
2019-05-06T09:40:49.546Z,45.36
2019-05-06T09:41:49.769Z,42.77
2019-05-06T09:42:51.932Z,42.96
2019-05-06T09:43:49.517Z,42.86
2019-05-06T09:44:50.663Z,43.08
2019-05-06T09:45:49.514Z,42.71
2019-05-06T09:46:49.479Z,43.75
2019-05-06T09:47:49.478Z,43.55
2019-05-06T09:48:49.460Z,43.59
2019-05-06T09:49:49.487Z,44.73
2019-05-06T09:50:49.445Z,44.94
2019-05-06T09:51:49.427Z,44.85
2019-05-06T09:52:49.429Z,46.59
2019-05-06T09:53:49.411Z,47.92
2019-05-06T09:54:49.394Z,47.92
2019-05-06T09:55:49.408Z,48.66
2019-05-06T09:56:49.374Z,48.46
2019-05-06T09:57:49.378Z,47.61
2019-05-06T09:58:49.353Z,48.33
2019-05-06T09:59:49.348Z,47.82
2019-05-06T10:00:49.330Z,47.61
2019-05-06T10:01:49.321Z,45.88
2019-05-06T10:02:49.665Z,45.29
2019-05-06T10:03:49.294Z,45.59
2019-05-06T10:04:49.292Z,45.59
2019-05-06T10:05:49.282Z,45.78
2019-05-06T10:06:57.320Z,45.98
2019-05-06T10:07:52.278Z,45.37
2019-05-06T10:08:49.266Z,45.76
2019-05-06T10:09:49.251Z,45.86
2019-05-06T10:10:56.883Z,44.94
2019-05-06T10:11:52.414Z,45.25
2019-05-06T10:12:49.201Z,45.04
2019-05-06T10:13:49.185Z,45.25
2019-05-06T10:14:49.190Z,44.53
2019-05-06T10:15:49.168Z,43.82
2019-05-06T10:16:49.169Z,44.73
2019-05-06T10:17:49.142Z,44.84
2019-05-06T10:18:49.131Z,44.43
2019-05-06T10:19:49.147Z,46.06
2019-05-06T10:20:49.109Z,43.61
2019-05-06T10:21:49.104Z,43.94
2019-05-06T10:22:57.185Z,42.81
2019-05-06T10:23:49.086Z,40.75
2019-05-06T10:24:49.068Z,42.81
2019-05-06T10:25:49.092Z,41.67
2019-05-06T10:26:49.045Z,42.79
2019-05-06T10:27:49.033Z,42.29
2019-05-06T10:28:49.031Z,41.88
2019-05-06T10:29:49.018Z,43.51
2019-05-06T10:30:49.002Z,43.91
2019-05-06T10:31:48.998Z,44.84
2019-05-06T10:32:48.982Z,43.91
2019-05-06T10:33:48.990Z,44.61
2019-05-06T10:34:48.966Z,45.81
2019-05-06T10:35:48.951Z,45.57
2019-05-06T10:36:48.962Z,42.06
2019-05-06T10:37:48.926Z,41.52
2019-05-06T10:38:48.922Z,41.78
2019-05-06T10:39:48.903Z,38.61
2019-05-06T10:41:01.033Z,39.44
2019-05-06T10:41:49.899Z,39.24
2019-05-06T10:42:48.883Z,39.56
2019-05-06T10:43:48.866Z,41.11
2019-05-06T10:44:48.885Z,40.62
2019-05-06T10:45:48.837Z,40.74
2019-05-06T10:46:48.831Z,40.76
2019-05-06T10:47:48.814Z,40.76
2019-05-06T10:48:48.809Z,41.59
2019-05-06T10:49:48.793Z,43.14
2019-05-06T10:50:48.798Z,43.35
2019-05-06T10:51:48.776Z,42.35
2019-05-06T10:52:48.760Z,43.59
2019-05-06T10:53:48.767Z,42.97
2019-05-06T10:54:48.747Z,42.90
2019-05-06T10:55:48.732Z,43.00
2019-05-06T10:56:52.693Z,43.32
2019-05-06T10:57:49.707Z,43.12
2019-05-06T10:58:48.698Z,43.53
2019-05-06T10:59:48.702Z,44.35
2019-05-06T11:00:48.679Z,45.06
2019-05-06T11:01:48.670Z,43.94
2019-05-06T11:02:48.653Z,45.25
2019-05-06T11:03:48.650Z,42.79
2019-05-06T11:04:48.652Z,43.49
2019-05-06T11:05:48.624Z,43.29
2019-05-06T11:06:48.615Z,42.65
2019-05-06T11:07:48.595Z,43.37
2019-05-06T11:08:48.591Z,43.37
2019-05-06T11:09:48.581Z,42.65
2019-05-06T11:10:48.581Z,41.94
2019-05-06T11:11:48.554Z,41.51
2019-05-06T11:12:48.544Z,41.30
2019-05-06T11:13:48.530Z,41.00
2019-05-06T11:14:48.530Z,41.92
2019-05-06T11:15:48.528Z,41.19
2019-05-06T11:16:48.501Z,39.82
2019-05-06T11:17:48.488Z,41.21
2019-05-06T11:18:48.479Z,40.80
2019-05-06T11:19:48.469Z,39.58
2019-05-06T11:20:48.453Z,39.50
2019-05-06T11:21:48.457Z,39.60
2019-05-06T11:22:48.435Z,39.62
2019-05-06T11:23:48.422Z,41.35
2019-05-06T11:24:48.414Z,40.45
2019-05-06T11:25:48.403Z,41.78
2019-05-06T11:26:48.401Z,42.00
2019-05-06T11:27:48.382Z,41.80
2019-05-06T11:28:48.365Z,43.44
2019-05-06T11:29:48.365Z,43.44
2019-05-06T11:30:48.343Z,43.23
2019-05-06T11:31:48.356Z,42.63
2019-05-06T11:32:48.321Z,41.92
2019-05-06T11:33:48.310Z,42.53
2019-05-06T11:34:48.301Z,43.55
2019-05-06T11:35:48.291Z,45.26
2019-05-06T11:36:48.277Z,40.78
2019-05-06T11:37:50.876Z,39.74
2019-05-06T11:38:49.251Z,39.92
2019-05-06T11:39:48.242Z,39.51
2019-05-06T11:40:48.231Z,39.40
2019-05-06T11:42:01.371Z,39.24
2019-05-06T11:42:49.240Z,36.69
2019-05-06T11:43:48.205Z,36.80
2019-05-06T11:44:48.208Z,37.02
2019-05-06T11:45:48.185Z,38.92
2019-05-06T11:46:48.211Z,39.10
2019-05-06T11:47:48.152Z,40.62
2019-05-06T11:48:48.167Z,38.57
2019-05-06T11:49:48.131Z,38.84
2019-05-06T11:50:48.128Z,39.47
2019-05-06T11:51:48.124Z,40.09
2019-05-06T11:52:48.099Z,38.92
2019-05-06T11:53:48.091Z,39.42
2019-05-06T11:54:48.097Z,39.22
2019-05-06T11:55:48.089Z,39.44
2019-05-06T11:56:51.741Z,38.93
2019-05-06T11:57:49.048Z,39.95
2019-05-06T11:58:48.033Z,40.77
2019-05-06T11:59:48.040Z,40.77
2019-05-06T12:00:48.018Z,39.83
2019-05-06T12:01:48.035Z,39.83
2019-05-06T12:02:48.901Z,38.61
2019-05-06T12:03:47.976Z,40.46
2019-05-06T12:04:47.969Z,41.46
2019-05-06T12:05:47.959Z,38.96
2019-05-06T12:06:47.947Z,37.10
2019-05-06T12:08:00.903Z,36.27
2019-05-06T12:08:48.932Z,36.05
2019-05-06T12:09:47.914Z,36.02
2019-05-06T12:10:47.907Z,34.67
2019-05-06T12:11:47.892Z,34.45
2019-05-06T12:12:47.880Z,33.43
2019-05-06T12:13:47.879Z,34.62
2019-05-06T12:14:47.866Z,33.26
2019-05-06T12:15:47.853Z,31.45
2019-05-06T12:16:47.874Z,31.24
2019-05-06T12:17:47.837Z,32.29
2019-05-06T12:18:47.825Z,34.42
2019-05-06T12:19:47.830Z,32.92
2019-05-06T12:20:47.792Z,32.64
2019-05-06T12:21:47.780Z,34.38
2019-05-06T12:22:47.775Z,34.80
2019-05-06T12:23:47.760Z,34.23
2019-05-06T12:24:47.751Z,34.77
2019-05-06T12:25:47.778Z,34.58
2019-05-06T12:26:47.729Z,35.11
2019-05-06T12:27:47.720Z,35.04
2019-05-06T12:28:47.705Z,35.85
2019-05-06T12:29:47.702Z,36.56
2019-05-06T12:30:47.701Z,36.99
2019-05-06T12:31:47.676Z,37.49
2019-05-06T12:32:47.668Z,36.61
2019-05-06T12:33:47.663Z,36.92
2019-05-06T12:34:47.647Z,36.73
2019-05-06T12:35:47.641Z,37.65
2019-05-06T12:36:47.620Z,39.58
2019-05-06T12:37:47.608Z,39.69
2019-05-06T12:38:47.604Z,38.67
2019-05-06T12:39:47.598Z,39.70
2019-05-06T12:40:47.604Z,39.50
2019-05-06T12:41:47.569Z,38.80
2019-05-06T12:42:47.553Z,40.03
2019-05-06T12:43:47.542Z,40.94
2019-05-06T12:44:47.530Z,40.25
2019-05-06T12:45:47.532Z,40.76
2019-05-06T12:46:47.517Z,40.76
2019-05-06T12:47:47.509Z,41.89
2019-05-06T12:48:47.493Z,40.88
2019-05-06T12:49:47.480Z,43.00
2019-05-06T12:50:47.465Z,43.10
2019-05-06T12:51:47.476Z,41.37
2019-05-06T12:52:47.441Z,41.06